PORTS® Data Listing: 8770613 Morgans Point, Barbours Cut, TX

CO-OPS RAW PORTS DATA

************************      PRELIMINARY DATA      ************************** 

     THIS RAW DATA HAS NOT BEEN SUBJECT TO THE NATIONAL OCEAN SERVICE'S        
     QUALITY CONTROL OR QUALITY ASSURANCE PROCEDURES AND DOES NOT MEET         
     THE CRITERIA AND STANDARDS OF OFFICIAL NATIONAL OCEAN SERVICE             
     DATA.  IT IS RELEASED FOR LIMITED PUBLIC USE AS PRELIMINARY DATA TO       
     BE USED ONLY WITH APPROPRIATE CAUTION.                                    

************************      PRELIMINARY DATA      ************************** 


       CD   -   Calendar date
       T    -   Time
       TZ   -   Timezone
       PW   -   Predicted water level (feet above MLLW)
       OW   -   Observed water level (feet above MLLW)
       WS   -   Wind speed (knots)
       WD   -   Wind direction (degrees true)
       WG   -   Wind gust (knots)
       AT   -   Air temperature (degrees farenheit)
       WT   -   Water temperature (degrees farenheit)
       AP   -   Air pressure (millibars)
       SA   -   Salinty (PSU - Practical Salinity Units)
       SG   -   Specific gravity
       RH   -   Relative humidity
       AG   -   Air gap (feet)
       VI   -   Visibility (nautical miles)

       ** NOTE **
       A variable that has its data fields filled with "9"s, indicates that
       data was not collected for that sample period.
       **********


STATION NAME: Morgans Point (8770613)
****************************************************************************************************
    CD       T    TZ    PW     OW    WS   WD   WG    AT    WT    AP    SA    SG     RH    AG   VI
****************************************************************************************************
2019/11/17 07:18 CST    1.38 -99.99 -999 -999 -999 -99.9 -99.9 -999.9 -9.9 -9.999 -99.9 -99.99 -9.99
2019/11/17 07:24 CST    1.37 -99.99 -999 -999 -999 -99.9 -99.9 -999.9 -9.9 -9.999 -99.9 -99.99 -9.99
2019/11/17 07:30 CST    1.36 -99.99 -999 -999 -999 -99.9 -99.9 -999.9 -9.9 -9.999 -99.9 -99.99 -9.99
2019/11/17 07:36 CST    1.35 -99.99 -999 -999 -999 -99.9 -99.9 -999.9 -9.9 -9.999 -99.9 -99.99 -9.99
2019/11/17 07:42 CST    1.34 -99.99 -999 -999 -999 -99.9 -99.9 -999.9 -9.9 -9.999 -99.9 -99.99 -9.99
2019/11/17 07:48 CST    1.34 -99.99 -999 -999 -999 -99.9 -99.9 -999.9 -9.9 -9.999 -99.9 -99.99 -9.99
2019/11/17 07:54 CST    1.33   1.77    2   33    3  50.0  58.1 1019.4 13.9  1.011 -99.9 -99.99 -9.99
2019/11/17 08:00 CST    1.32   1.80    3   23    4  49.3  58.1 1019.6 13.9  1.011 -99.9 -99.99 -9.99
2019/11/17 08:06 CST    1.31   1.80    2   33    4  49.3  58.1 1019.6 13.9  1.011 -99.9 -99.99 -9.99
2019/11/17 08:12 CST    1.30   1.80    2   68    3  49.5  58.1 1019.5 13.9  1.011 -99.9 -99.99 -9.99
2019/11/17 08:18 CST    1.29   1.84    1   94    2  50.0  58.3 1019.5 13.9  1.011 -99.9 -99.99 -9.99
2019/11/17 08:24 CST    1.27   1.76    2   64    2  49.8  58.3 1019.6 13.8  1.011 -99.9 -99.99 -9.99
2019/11/17 08:30 CST    1.26   1.74    2   52    3  50.2  58.3 1019.7 13.8  1.011 -99.9 -99.99 -9.99
2019/11/17 08:36 CST    1.25   1.70    1   26    2  50.4  58.3 1019.8 13.8  1.011 -99.9 -99.99 -9.99
2019/11/17 08:42 CST    1.24   1.74    1    7    2  50.5  58.3 1019.8 13.8  1.011 -99.9 -99.99 -9.99
2019/11/17 08:48 CST    1.23   1.70    0   32    1  51.3  58.3 1019.9 13.8  1.011 -99.9 -99.99 -9.99
2019/11/17 08:54 CST    1.22   1.59    0   40    1  51.8  58.1 1019.9 13.8  1.011 -99.9 -99.99 -9.99
2019/11/17 09:00 CST    1.20   1.68    1  347    1  52.2  58.1 1019.9 13.8  1.011 -99.9 -99.99 -9.99
2019/11/17 09:06 CST    1.19   1.72    1    6    2  51.8  58.3 1019.9 13.8  1.011 -99.9 -99.99 -9.99
2019/11/17 09:12 CST    1.18   1.35    0   10    2  52.5  58.3 1019.8 13.8  1.011 -99.9 -99.99 -9.99
2019/11/17 09:18 CST    1.17   1.54    0  350    0  52.9  58.3 1019.9 13.8  1.011 -99.9 -99.99 -9.99
2019/11/17 09:24 CST    1.15   1.44    0   18    0  53.2  58.5 1019.8 13.8  1.011 -99.9 -99.99 -9.99
2019/11/17 09:30 CST    1.14   1.53    1   13    2  53.1  58.5 1019.9 13.8  1.011 -99.9 -99.99 -9.99
2019/11/17 09:36 CST    1.13   1.57    2   21    3  52.7  58.6 1019.8 13.8  1.011 -99.9 -99.99 -9.99
2019/11/17 09:42 CST    1.11   1.53    1   58    2  53.2  58.6 1019.8 13.8  1.011 -99.9 -99.99 -9.99
2019/11/17 09:48 CST    1.10   1.45    2   48    2  53.1  58.6 1019.8 13.8  1.011 -99.9 -99.99 -9.99
2019/11/17 09:54 CST    1.09   1.53    1   55    2  53.4  58.6 1019.7 13.8  1.011 -99.9 -99.99 -9.99
2019/11/17 10:00 CST    1.07   1.41    2   37    2  53.6  58.6 1019.7 13.8  1.011 -99.9 -99.99 -9.99
2019/11/17 10:06 CST    1.06   1.48    2   47    2  54.0  58.6 1019.5 13.8  1.011 -99.9 -99.99 -9.99
2019/11/17 10:12 CST    1.04   1.46    3   53    4  54.1  58.6 1019.6 13.7  1.011 -99.9 -99.99 -9.99
2019/11/17 10:18 CST    1.03   1.50    2   55    4  54.9  58.6 1019.5 13.7  1.011 -99.9 -99.99 -9.99
2019/11/17 10:24 CST    1.01   1.37    0  114    2  56.1  58.5 1019.4 13.8  1.011 -99.9 -99.99 -9.99
2019/11/17 10:30 CST    1.00   1.38    2   92    3  55.9  58.5 1019.2 13.8  1.011 -99.9 -99.99 -9.99
2019/11/17 10:36 CST    0.98   1.42    4  138    5  57.4  58.5 1019.1 13.7  1.011 -99.9 -99.99 -9.99
2019/11/17 10:42 CST    0.97   1.42    3  148    5  57.7  58.5 1019.1 13.7  1.011 -99.9 -99.99 -9.99
2019/11/17 10:48 CST    0.95   1.43    4  162    4  57.2  58.5 1019.1 13.7  1.011 -99.9 -99.99 -9.99
2019/11/17 10:54 CST    0.93   1.39    3  137    4  57.9  58.5 1019.1 13.7  1.011 -99.9 -99.99 -9.99
2019/11/17 11:00 CST    0.92   1.13    3  146    4  58.3  58.5 1018.9 13.7  1.011 -99.9 -99.99 -9.99
2019/11/17 11:06 CST    0.90   1.33    3  174    4  57.9  58.5 1018.9 13.7  1.011 -99.9 -99.99 -9.99
2019/11/17 11:12 CST    0.88   1.27    1  132    3  58.8  58.5 1018.7 13.7  1.011 -99.9 -99.99 -9.99
2019/11/17 11:18 CST    0.86   1.31    3  138    3  58.8  58.5 1018.6 13.7  1.011 -99.9 -99.99 -9.99
2019/11/17 11:24 CST    0.84   1.32    2  141    4  59.5  58.5 1018.5 13.7  1.011 -99.9 -99.99 -9.99
2019/11/17 11:30 CST    0.82   1.21    3  145    4  59.9  58.5 1018.5 13.7  1.011 -99.9 -99.99 -9.99
2019/11/17 11:36 CST    0.80   1.18    4  157    5  59.4  58.6 1018.4 13.7  1.011 -99.9 -99.99 -9.99
2019/11/17 11:42 CST    0.78   1.24    2  167    5  59.0  58.6 1018.3 13.7  1.011 -99.9 -99.99 -9.99
2019/11/17 11:48 CST    0.76   1.20    2  160    4  59.9  58.6 1018.2 13.7  1.011 -99.9 -99.99 -9.99
2019/11/17 11:54 CST    0.74   1.16    3  138    5  60.3  58.8 1018.2 13.7  1.011 -99.9 -99.99 -9.99
2019/11/17 12:00 CST    0.72 -99.99 -999 -999 -999 -99.9 -99.9 -999.9 -9.9 -9.999 -99.9 -99.99 -9.99
2019/11/17 12:06 CST    0.70 -99.99 -999 -999 -999 -99.9 -99.9 -999.9 -9.9 -9.999 -99.9 -99.99 -9.99
2019/11/17 12:12 CST    0.68 -99.99 -999 -999 -999 -99.9 -99.9 -999.9 -9.9 -9.999 -99.9 -99.99 -9.99
2019/11/17 12:18 CST    0.66 -99.99 -999 -999 -999 -99.9 -99.9 -999.9 -9.9 -9.999 -99.9 -99.99 -9.99
2019/11/17 12:24 CST    0.64 -99.99 -999 -999 -999 -99.9 -99.9 -999.9 -9.9 -9.999 -99.9 -99.99 -9.99
2019/11/17 12:30 CST    0.62 -99.99 -999 -999 -999 -99.9 -99.9 -999.9 -9.9 -9.999 -99.9 -99.99 -9.99
2019/11/17 12:36 CST    0.60 -99.99 -999 -999 -999 -99.9 -99.9 -999.9 -9.9 -9.999 -99.9 -99.99 -9.99
2019/11/17 12:42 CST    0.57 -99.99 -999 -999 -999 -99.9 -99.9 -999.9 -9.9 -9.999 -99.9 -99.99 -9.99
2019/11/17 12:48 CST    0.55 -99.99 -999 -999 -999 -99.9 -99.9 -999.9 -9.9 -9.999 -99.9 -99.99 -9.99
2019/11/17 12:54 CST    0.53 -99.99 -999 -999 -999 -99.9 -99.9 -999.9 -9.9 -9.999 -99.9 -99.99 -9.99
2019/11/17 13:00 CST    0.51 -99.99 -999 -999 -999 -99.9 -99.9 -999.9 -9.9 -9.999 -99.9 -99.99 -9.99
2019/11/17 13:06 CST    0.49 -99.99 -999 -999 -999 -99.9 -99.9 -999.9 -9.9 -9.999 -99.9 -99.99 -9.99
2019/11/17 13:12 CST    0.47 -99.99 -999 -999 -999 -99.9 -99.9 -999.9 -9.9 -9.999 -99.9 -99.99 -9.99
2019/11/17 13:18 CST    0.46 -99.99 -999 -999 -999 -99.9 -99.9 -999.9 -9.9 -9.999 -99.9 -99.99 -9.99
2019/11/17 13:24 CST    0.44 -99.99 -999 -999 -999 -99.9 -99.9 -999.9 -9.9 -9.999 -99.9 -99.99 -9.99
2019/11/17 13:30 CST    0.42 -99.99 -999 -999 -999 -99.9 -99.9 -999.9 -9.9 -9.999 -99.9 -99.99 -9.99
2019/11/17 13:36 CST    0.40 -99.99 -999 -999 -999 -99.9 -99.9 -999.9 -9.9 -9.999 -99.9 -99.99 -9.99
2019/11/17 13:42 CST    0.38 -99.99 -999 -999 -999 -99.9 -99.9 -999.9 -9.9 -9.999 -99.9 -99.99 -9.99
2019/11/17 13:48 CST    0.36 -99.99 -999 -999 -999 -99.9 -99.9 -999.9 -9.9 -9.999 -99.9 -99.99 -9.99
2019/11/17 13:54 CST    0.34 -99.99 -999 -999 -999 -99.9 -99.9 -999.9 -9.9 -9.999 -99.9 -99.99 -9.99
2019/11/17 14:00 CST    0.32 -99.99 -999 -999 -999 -99.9 -99.9 -999.9 -9.9 -9.999 -99.9 -99.99 -9.99
2019/11/17 14:06 CST    0.30 -99.99 -999 -999 -999 -99.9 -99.9 -999.9 -9.9 -9.999 -99.9 -99.99 -9.99
2019/11/17 14:12 CST    0.29 -99.99 -999 -999 -999 -99.9 -99.9 -999.9 -9.9 -9.999 -99.9 -99.99 -9.99
2019/11/17 14:18 CST    0.27 -99.99 -999 -999 -999 -99.9 -99.9 -999.9 -9.9 -9.999 -99.9 -99.99 -9.99
2019/11/17 14:24 CST    0.25 -99.99 -999 -999 -999 -99.9 -99.9 -999.9 -9.9 -9.999 -99.9 -99.99 -9.99
2019/11/17 14:30 CST    0.23 -99.99 -999 -999 -999 -99.9 -99.9 -999.9 -9.9 -9.999 -99.9 -99.99 -9.99
2019/11/17 14:36 CST    0.21 -99.99 -999 -999 -999 -99.9 -99.9 -999.9 -9.9 -9.999 -99.9 -99.99 -9.99
2019/11/17 14:42 CST    0.20   0.59    5  140    5  62.1  59.4 1015.6 13.4  1.010 -99.9 -99.99 -9.99
2019/11/17 14:48 CST    0.18   0.60    4  140    5  62.6  59.4 1015.8 13.4  1.010 -99.9 -99.99 -9.99
2019/11/17 14:54 CST    0.16   0.63    5  137    6  62.1  59.2 1015.7 13.4  1.010 -99.9 -99.99 -9.99
2019/11/17 15:00 CST    0.15   0.59    3  137    6  62.2  59.2 1015.9 13.3  1.010 -99.9 -99.99 -9.99
2019/11/17 15:06 CST    0.13   0.57    4  135    5  62.1  59.2 1015.8 13.3  1.010 -99.9 -99.99 -9.99
2019/11/17 15:12 CST    0.12   0.57    4  130    5  61.9  59.2 1015.9 13.2  1.010 -99.9 -99.99 -9.99
2019/11/17 15:18 CST    0.10   0.56    5  133    5  61.9  59.2 1015.8 13.1  1.010 -99.9 -99.99 -9.99
2019/11/17 15:24 CST    0.09   0.58    4  142    6  62.2  59.2 1015.7 13.0  1.010 -99.9 -99.99 -9.99
2019/11/17 15:30 CST    0.07   0.41    4  137    5  61.5  59.2 1015.8 13.0  1.010 -99.9 -99.99 -9.99
2019/11/17 15:36 CST    0.06   0.56    4  144    5  61.5  59.0 1015.7 12.9  1.010 -99.9 -99.99 -9.99
2019/11/17 15:42 CST    0.05   0.38    6  144    7  60.8  59.0 1015.7 12.9  1.010 -99.9 -99.99 -9.99
2019/11/17 15:48 CST    0.04   0.46    4  149    6  61.2  59.0 1015.8 12.9  1.010 -99.9 -99.99 -9.99
2019/11/17 15:54 CST    0.03   0.48    5  146    6  60.8  59.0 1015.7 12.8  1.010 -99.9 -99.99 -9.99
2019/11/17 16:00 CST    0.02   0.38    4  142    6  60.8  59.0 1015.5 12.8  1.010 -99.9 -99.99 -9.99
2019/11/17 16:06 CST    0.01   0.33    6  137    7  60.1  59.0 1015.5 12.8  1.010 -99.9 -99.99 -9.99
2019/11/17 16:12 CST   -0.00   0.34    4  134    6  59.7  59.0 1015.6 12.8  1.010 -99.9 -99.99 -9.99
2019/11/17 16:18 CST   -0.01   0.37    4  139    5  59.5  59.0 1015.7 12.8  1.010 -99.9 -99.99 -9.99
2019/11/17 16:24 CST   -0.02   0.40    4  148    5  59.5  59.0 1015.7 12.7  1.010 -99.9 -99.99 -9.99
2019/11/17 16:30 CST   -0.03   0.33    5  146    6  59.4  59.0 1015.6 12.7  1.010 -99.9 -99.99 -9.99
2019/11/17 16:36 CST   -0.03   0.30    4  145    6  59.4  59.0 1015.5 12.7  1.010 -99.9 -99.99 -9.99
2019/11/17 16:42 CST   -0.04   0.34    5  142    6  59.4  59.0 1015.5 12.7  1.010 -99.9 -99.99 -9.99
2019/11/17 16:48 CST   -0.04   0.28    4  149    6  59.4  59.0 1015.6 12.7  1.010 -99.9 -99.99 -9.99
2019/11/17 16:54 CST   -0.05   0.29    4  157    5  59.4  59.0 1015.7 12.7  1.010 -99.9 -99.99 -9.99
2019/11/17 17:00 CST   -0.05   0.25    4  160    5  59.4  59.0 1015.7 12.7  1.010 -99.9 -99.99 -9.99
2019/11/17 17:06 CST   -0.05   0.34    4  163    5  59.5  59.0 1015.6 12.7  1.010 -99.9 -99.99 -9.99
2019/11/17 17:12 CST   -0.06   0.21    4  162    5  59.5  59.0 1015.7 12.6  1.010 -99.9 -99.99 -9.99
2019/11/17 17:18 CST   -0.06   0.28    5  166    6  59.5  59.0 1015.7 12.7  1.010 -99.9 -99.99 -9.99
2019/11/17 17:24 CST   -0.06   0.23    5  168    6  59.5  58.8 1015.8 12.7  1.010 -99.9 -99.99 -9.99
2019/11/17 17:30 CST   -0.06   0.30    4  174    6  59.5  59.0 1015.9 12.7  1.010 -99.9 -99.99 -9.99
2019/11/17 17:36 CST   -0.06   0.24    5  176    6  59.4  59.0 1015.8 12.6  1.010 -99.9 -99.99 -9.99
2019/11/17 17:42 CST   -0.06   0.29    4  179    7  59.2  58.8 1015.9 12.7  1.010 -99.9 -99.99 -9.99
2019/11/17 17:48 CST   -0.06   0.31    4  180    6  59.2  58.8 1015.9 12.7  1.010 -99.9 -99.99 -9.99
2019/11/17 17:54 CST   -0.06   0.31    5  179    7  59.0  58.8 1015.9 12.7  1.010 -99.9 -99.99 -9.99
2019/11/17 18:00 CST   -0.05   0.30    4  179    7  59.0  58.8 1015.9 12.7  1.010 -99.9 -99.99 -9.99
2019/11/17 18:06 CST   -0.05   0.29    4  177    6  59.0  58.8 1015.9 12.9  1.010 -99.9 -99.99 -9.99
2019/11/17 18:12 CST   -0.04   0.25    5  172    6  59.0  58.6 1015.9 13.0  1.010 -99.9 -99.99 -9.99
2019/11/17 18:18 CST   -0.04   0.33    4  177    6  59.0  58.8 1016.0 13.0  1.010 -99.9 -99.99 -9.99
2019/11/17 18:24 CST   -0.03   0.32    4  175    5  59.0  58.8 1016.0 12.9  1.010 -99.9 -99.99 -9.99
2019/11/17 18:30 CST   -0.02   0.34    4  174    6  58.8  58.8 1016.0 12.9  1.010 -99.9 -99.99 -9.99
2019/11/17 18:36 CST   -0.01   0.34    5  172    6  58.8  58.8 1016.1 12.9  1.010 -99.9 -99.99 -9.99
2019/11/17 18:42 CST   -0.00   0.37    3  171    5  58.8  58.8 1016.2 12.8  1.010 -99.9 -99.99 -9.99
2019/11/17 18:48 CST    0.01   0.39    4  182    5  58.8  58.8 1016.3 12.8  1.010 -99.9 -99.99 -9.99
2019/11/17 18:54 CST    0.02   0.42    3  175    4  58.8  58.8 1016.4 12.9  1.010 -99.9 -99.99 -9.99
2019/11/17 19:00 CST    0.03   0.40    2  200    3  59.0  58.8 1016.5 13.4  1.010 -99.9 -99.99 -9.99
2019/11/17 19:06 CST    0.05   0.43    2  172    3  59.0  58.6 1016.5 13.6  1.010 -99.9 -99.99 -9.99
2019/11/17 19:12 CST    0.06   0.46    2  173    3  59.0  58.6 1016.5 13.7  1.011 -99.9 -99.99 -9.99
2019/11/17 19:18 CST    0.08   0.49    2  186    3  59.0  58.5 1016.5 13.8  1.011 -99.9 -99.99 -9.99
2019/11/17 19:24 CST    0.10   0.49    1  193    2  59.0  58.5 1016.5 13.8  1.011 -99.9 -99.99 -9.99
2019/11/17 19:30 CST    0.12   0.55    2  213    2  59.0  58.5 1016.5 13.7  1.011 -99.9 -99.99 -9.99
2019/11/17 19:36 CST    0.13   0.58    2  223    3  59.2  58.6 1016.5 13.6  1.010 -99.9 -99.99 -9.99
2019/11/17 19:42 CST    0.15   0.63    1  179    2  59.2  58.6 1016.4 13.6  1.010 -99.9 -99.99 -9.99
2019/11/17 19:48 CST    0.17   0.44    1  199    2  59.4  58.6 1016.5 13.5  1.010 -99.9 -99.99 -9.99
2019/11/17 19:54 CST    0.19   0.48    2  165    2  59.2  58.6 1016.4 13.5  1.010 -99.9 -99.99 -9.99
2019/11/17 20:00 CST    0.22   0.53    1  176    3  58.8  58.6 1016.5 13.6  1.011 -99.9 -99.99 -9.99
2019/11/17 20:06 CST    0.24   0.74    2  169    2  58.6  58.5 1016.5 13.8  1.011 -99.9 -99.99 -9.99
2019/11/17 20:12 CST    0.26   0.71    3  176    4  58.8  58.6 1016.5 13.9  1.011 -99.9 -99.99 -9.99
2019/11/17 20:18 CST    0.28   0.62    4  170    4  58.5  58.6 1016.5 13.9  1.011 -99.9 -99.99 -9.99
2019/11/17 20:24 CST    0.31   0.53    2  193    4  58.3  58.6 1016.4 13.9  1.011 -99.9 -99.99 -9.99
2019/11/17 20:30 CST    0.33   0.77    1  195    3  58.3  58.5 1016.3 14.1  1.011 -99.9 -99.99 -9.99
2019/11/17 20:36 CST    0.35   0.71    2  214    3  58.5  58.5 1016.5 14.1  1.011 -99.9 -99.99 -9.99
2019/11/17 20:42 CST    0.38   0.85    3  209    4  58.5  58.5 1016.5 14.1  1.011 -99.9 -99.99 -9.99
2019/11/17 20:48 CST    0.40   0.81    2  212    3  58.6  58.5 1016.5 14.1  1.011 -99.9 -99.99 -9.99
2019/11/17 20:54 CST    0.43   0.75    2  222    3  58.5  58.5 1016.4 14.2  1.011 -99.9 -99.99 -9.99
2019/11/17 21:00 CST    0.45   0.87    3  214    4  58.6  58.5 1016.4 14.2  1.011 -99.9 -99.99 -9.99
2019/11/17 21:06 CST    0.48   0.90    4  209    4  58.6  58.5 1016.4 14.2  1.011 -99.9 -99.99 -9.99
2019/11/17 21:12 CST    0.51   0.94    3  213    4  58.6  58.5 1016.4 14.2  1.011 -99.9 -99.99 -9.99
2019/11/17 21:18 CST    0.53   0.97    3  221    4  58.5  58.5 1016.4 14.2  1.011 -99.9 -99.99 -9.99
2019/11/17 21:24 CST    0.56   0.99    3  218    4  58.3  58.5 1016.5 14.2  1.011 -99.9 -99.99 -9.99
2019/11/17 21:30 CST    0.59   0.96    4  218    4  58.5  58.5 1016.4 14.1  1.011 -99.9 -99.99 -9.99
2019/11/17 21:36 CST    0.61   1.05    4  223    5  58.5  58.5 1016.5 14.1  1.011 -99.9 -99.99 -9.99
2019/11/17 21:42 CST    0.64   0.89    3  218    5  58.3  58.5 1016.4 14.1  1.011 -99.9 -99.99 -9.99
2019/11/17 21:48 CST    0.67   1.17    3  210    4  58.3  58.5 1016.4 14.1  1.011 -99.9 -99.99 -9.99
2019/11/17 21:54 CST    0.70   0.92    2  193    4  58.1  58.5 1016.5 13.9  1.011 -99.9 -99.99 -9.99
2019/11/17 22:00 CST    0.72   1.08    0  196    2  57.7  58.5 1016.3 13.9  1.011 -99.9 -99.99 -9.99
2019/11/17 22:06 CST    0.75   1.09    3  211    4  57.7  58.5 1016.3 14.0  1.011 -99.9 -99.99 -9.99
2019/11/17 22:12 CST    0.78   1.21    3  211    4  57.9  58.5 1016.3 14.0  1.011 -99.9 -99.99 -9.99
2019/11/17 22:18 CST    0.81   1.14    3  212    5  57.9  58.5 1016.3 14.0  1.011 -99.9 -99.99 -9.99
2019/11/17 22:24 CST    0.84   1.22    2  220    4  57.9  58.5 1016.4 14.0  1.011 -99.9 -99.99 -9.99
2019/11/17 22:30 CST    0.86   1.13    2  237    3  57.7  58.5 1016.5 14.0  1.011 -99.9 -99.99 -9.99
2019/11/17 22:36 CST    0.89   1.24    1  227    2  57.4  58.5 1016.5 14.0  1.011 -99.9 -99.99 -9.99
2019/11/17 22:42 CST    0.92   1.34    1  196    2  57.2  58.5 1016.4 14.0  1.011 -99.9 -99.99 -9.99
2019/11/17 22:48 CST    0.95   1.22    1  204    2  57.2  58.5 1016.3 14.0  1.011 -99.9 -99.99 -9.99
2019/11/17 22:54 CST    0.97   1.34    2  210    2  57.2  58.5 1016.3 14.0  1.011 -99.9 -99.99 -9.99
2019/11/17 23:00 CST    1.00   1.31    1  186    2  57.2  58.5 1016.2 14.0  1.011 -99.9 -99.99 -9.99
2019/11/17 23:06 CST    1.03   1.35    1  191    2  57.0  58.5 1016.3 14.0  1.011 -99.9 -99.99 -9.99
2019/11/17 23:12 CST    1.05   1.42    1  203    1  56.8  58.5 1016.2 14.0  1.011 -99.9 -99.99 -9.99
2019/11/17 23:18 CST    1.08   1.41    0  243    1  56.5  58.6 1016.1 14.0  1.011 -99.9 -99.99 -9.99
2019/11/17 23:24 CST    1.10   1.46    0  234    0  56.5  58.6 1016.1 14.0  1.011 -99.9 -99.99 -9.99
2019/11/17 23:30 CST    1.12   1.46    0  144    0  56.8  58.6 1016.1 14.0  1.011 -99.9 -99.99 -9.99
2019/11/17 23:36 CST    1.15   1.44    0  122    0  56.3  58.6 1016.1 14.0  1.011 -99.9 -99.99 -9.99
2019/11/17 23:42 CST    1.17   1.49    0  122    0  56.3  58.6 1016.1 14.0  1.011 -99.9 -99.99 -9.99
2019/11/17 23:48 CST    1.19   1.52    0  122    0  56.3  58.6 1016.1 14.0  1.011 -99.9 -99.99 -9.99
2019/11/17 23:54 CST    1.21   1.52    0  255    1  55.9  58.6 1016.1 14.0  1.011 -99.9 -99.99 -9.99
2019/11/18 00:00 CST    1.23   1.59    0  228    2  55.8  58.6 1016.0 14.1  1.011 -99.9 -99.99 -9.99
2019/11/18 00:06 CST    1.25   1.54    0  231    1  56.5  58.6 1016.0 14.1  1.011 -99.9 -99.99 -9.99
2019/11/18 00:12 CST    1.27   1.60    1  276    2  55.9  58.6 1016.0 14.3  1.011 -99.9 -99.99 -9.99
2019/11/18 00:18 CST    1.29   1.62    1  306    4  56.7  58.6 1016.0 14.3  1.011 -99.9 -99.99 -9.99
2019/11/18 00:24 CST    1.31   1.63    1  290    2  56.3  58.6 1015.9 14.3  1.011 -99.9 -99.99 -9.99
2019/11/18 00:30 CST    1.33   1.69    2  282    3  56.1  58.6 1015.8 14.3  1.011 -99.9 -99.99 -9.99
2019/11/18 00:36 CST    1.34   1.71    3  257    5  56.5  58.6 1015.9 14.2  1.011 -99.9 -99.99 -9.99
2019/11/18 00:42 CST    1.36   1.70    4  249    6  56.8  58.6 1015.8 14.2  1.011 -99.9 -99.99 -9.99
2019/11/18 00:48 CST    1.38   1.65    5  251    6  56.8  58.6 1015.8 14.2  1.011 -99.9 -99.99 -9.99
2019/11/18 00:54 CST    1.39   1.71    5  248    6  56.8  58.6 1015.8 14.3  1.011 -99.9 -99.99 -9.99
2019/11/18 01:00 CST    1.41   1.68    6  252    7  56.8  58.6 1015.8 14.3  1.011 -99.9 -99.99 -9.99
2019/11/18 01:06 CST    1.42 -99.99 -999 -999 -999 -99.9 -99.9 -999.9 -9.9 -9.999 -99.9 -99.99 -9.99
2019/11/18 01:12 CST    1.44 -99.99 -999 -999 -999 -99.9 -99.9 -999.9 -9.9 -9.999 -99.9 -99.99 -9.99
2019/11/18 01:18 CST    1.45 -99.99 -999 -999 -999 -99.9 -99.9 -999.9 -9.9 -9.999 -99.9 -99.99 -9.99
2019/11/18 01:24 CST    1.47 -99.99 -999 -999 -999 -99.9 -99.9 -999.9 -9.9 -9.999 -99.9 -99.99 -9.99
2019/11/18 01:30 CST    1.48 -99.99 -999 -999 -999 -99.9 -99.9 -999.9 -9.9 -9.999 -99.9 -99.99 -9.99
2019/11/18 01:36 CST    1.49 -99.99 -999 -999 -999 -99.9 -99.9 -999.9 -9.9 -9.999 -99.9 -99.99 -9.99
2019/11/18 01:42 CST    1.51 -99.99 -999 -999 -999 -99.9 -99.9 -999.9 -9.9 -9.999 -99.9 -99.99 -9.99
2019/11/18 01:48 CST    1.52 -99.99 -999 -999 -999 -99.9 -99.9 -999.9 -9.9 -9.999 -99.9 -99.99 -9.99
2019/11/18 01:54 CST    1.53 -99.99 -999 -999 -999 -99.9 -99.9 -999.9 -9.9 -9.999 -99.9 -99.99 -9.99
2019/11/18 02:00 CST    1.54 -99.99 -999 -999 -999 -99.9 -99.9 -999.9 -9.9 -9.999 -99.9 -99.99 -9.99
2019/11/18 02:06 CST    1.55 -99.99 -999 -999 -999 -99.9 -99.9 -999.9 -9.9 -9.999 -99.9 -99.99 -9.99
2019/11/18 02:12 CST    1.56 -99.99 -999 -999 -999 -99.9 -99.9 -999.9 -9.9 -9.999 -99.9 -99.99 -9.99
2019/11/18 02:18 CST    1.56 -99.99 -999 -999 -999 -99.9 -99.9 -999.9 -9.9 -9.999 -99.9 -99.99 -9.99
2019/11/18 02:24 CST    1.57 -99.99 -999 -999 -999 -99.9 -99.9 -999.9 -9.9 -9.999 -99.9 -99.99 -9.99
2019/11/18 02:30 CST    1.58 -99.99 -999 -999 -999 -99.9 -99.9 -999.9 -9.9 -9.999 -99.9 -99.99 -9.99
2019/11/18 02:36 CST    1.58 -99.99 -999 -999 -999 -99.9 -99.9 -999.9 -9.9 -9.999 -99.9 -99.99 -9.99
2019/11/18 02:42 CST    1.59 -99.99 -999 -999 -999 -99.9 -99.9 -999.9 -9.9 -9.999 -99.9 -99.99 -9.99
2019/11/18 02:48 CST    1.59 -99.99 -999 -999 -999 -99.9 -99.9 -999.9 -9.9 -9.999 -99.9 -99.99 -9.99
2019/11/18 02:54 CST    1.60 -99.99 -999 -999 -999 -99.9 -99.9 -999.9 -9.9 -9.999 -99.9 -99.99 -9.99
2019/11/18 03:00 CST    1.60 -99.99 -999 -999 -999 -99.9 -99.9 -999.9 -9.9 -9.999 -99.9 -99.99 -9.99
2019/11/18 03:06 CST    1.60 -99.99 -999 -999 -999 -99.9 -99.9 -999.9 -9.9 -9.999 -99.9 -99.99 -9.99
2019/11/18 03:12 CST    1.60 -99.99 -999 -999 -999 -99.9 -99.9 -999.9 -9.9 -9.999 -99.9 -99.99 -9.99
2019/11/18 03:18 CST    1.61 -99.99 -999 -999 -999 -99.9 -99.9 -999.9 -9.9 -9.999 -99.9 -99.99 -9.99
2019/11/18 03:24 CST    1.61 -99.99 -999 -999 -999 -99.9 -99.9 -999.9 -9.9 -9.999 -99.9 -99.99 -9.99
2019/11/18 03:30 CST    1.61 -99.99 -999 -999 -999 -99.9 -99.9 -999.9 -9.9 -9.999 -99.9 -99.99 -9.99
2019/11/18 03:36 CST    1.61 -99.99 -999 -999 -999 -99.9 -99.9 -999.9 -9.9 -9.999 -99.9 -99.99 -9.99
2019/11/18 03:42 CST    1.61 -99.99 -999 -999 -999 -99.9 -99.9 -999.9 -9.9 -9.999 -99.9 -99.99 -9.99
2019/11/18 03:48 CST    1.61 -99.99 -999 -999 -999 -99.9 -99.9 -999.9 -9.9 -9.999 -99.9 -99.99 -9.99
2019/11/18 03:54 CST    1.61 -99.99 -999 -999 -999 -99.9 -99.9 -999.9 -9.9 -9.999 -99.9 -99.99 -9.99
2019/11/18 04:00 CST    1.60 -99.99 -999 -999 -999 -99.9 -99.9 -999.9 -9.9 -9.999 -99.9 -99.99 -9.99
2019/11/18 04:06 CST    1.60 -99.99 -999 -999 -999 -99.9 -99.9 -999.9 -9.9 -9.999 -99.9 -99.99 -9.99
2019/11/18 04:12 CST    1.60 -99.99 -999 -999 -999 -99.9 -99.9 -999.9 -9.9 -9.999 -99.9 -99.99 -9.99
2019/11/18 04:18 CST    1.60 -99.99 -999 -999 -999 -99.9 -99.9 -999.9 -9.9 -9.999 -99.9 -99.99 -9.99
2019/11/18 04:24 CST    1.60 -99.99 -999 -999 -999 -99.9 -99.9 -999.9 -9.9 -9.999 -99.9 -99.99 -9.99
2019/11/18 04:30 CST    1.59 -99.99 -999 -999 -999 -99.9 -99.9 -999.9 -9.9 -9.999 -99.9 -99.99 -9.99
2019/11/18 04:36 CST    1.59 -99.99 -999 -999 -999 -99.9 -99.9 -999.9 -9.9 -9.999 -99.9 -99.99 -9.99
2019/11/18 04:42 CST    1.59 -99.99 -999 -999 -999 -99.9 -99.9 -999.9 -9.9 -9.999 -99.9 -99.99 -9.99
2019/11/18 04:48 CST    1.58 -99.99 -999 -999 -999 -99.9 -99.9 -999.9 -9.9 -9.999 -99.9 -99.99 -9.99
2019/11/18 04:54 CST    1.58 -99.99 -999 -999 -999 -99.9 -99.9 -999.9 -9.9 -9.999 -99.9 -99.99 -9.99
2019/11/18 05:00 CST    1.57 -99.99 -999 -999 -999 -99.9 -99.9 -999.9 -9.9 -9.999 -99.9 -99.99 -9.99
2019/11/18 05:06 CST    1.57 -99.99 -999 -999 -999 -99.9 -99.9 -999.9 -9.9 -9.999 -99.9 -99.99 -9.99
2019/11/18 05:12 CST    1.56 -99.99 -999 -999 -999 -99.9 -99.9 -999.9 -9.9 -9.999 -99.9 -99.99 -9.99
2019/11/18 05:18 CST    1.56 -99.99 -999 -999 -999 -99.9 -99.9 -999.9 -9.9 -9.999 -99.9 -99.99 -9.99
2019/11/18 05:24 CST    1.55 -99.99 -999 -999 -999 -99.9 -99.9 -999.9 -9.9 -9.999 -99.9 -99.99 -9.99
2019/11/18 05:30 CST    1.55 -99.99 -999 -999 -999 -99.9 -99.9 -999.9 -9.9 -9.999 -99.9 -99.99 -9.99
2019/11/18 05:36 CST    1.54 -99.99 -999 -999 -999 -99.9 -99.9 -999.9 -9.9 -9.999 -99.9 -99.99 -9.99
2019/11/18 05:42 CST    1.53 -99.99 -999 -999 -999 -99.9 -99.9 -999.9 -9.9 -9.999 -99.9 -99.99 -9.99
2019/11/18 05:48 CST    1.52 -99.99 -999 -999 -999 -99.9 -99.9 -999.9 -9.9 -9.999 -99.9 -99.99 -9.99
2019/11/18 05:54 CST    1.52 -99.99 -999 -999 -999 -99.9 -99.9 -999.9 -9.9 -9.999 -99.9 -99.99 -9.99
2019/11/18 06:00 CST    1.51 -99.99 -999 -999 -999 -99.9 -99.9 -999.9 -9.9 -9.999 -99.9 -99.99 -9.99
2019/11/18 06:06 CST    1.50 -99.99 -999 -999 -999 -99.9 -99.9 -999.9 -9.9 -9.999 -99.9 -99.99 -9.99
2019/11/18 06:12 CST    1.49 -99.99 -999 -999 -999 -99.9 -99.9 -999.9 -9.9 -9.999 -99.9 -99.99 -9.99
2019/11/18 06:18 CST    1.48 -99.99 -999 -999 -999 -99.9 -99.9 -999.9 -9.9 -9.999 -99.9 -99.99 -9.99
2019/11/18 06:24 CST    1.47 -99.99 -999 -999 -999 -99.9 -99.9 -999.9 -9.9 -9.999 -99.9 -99.99 -9.99
2019/11/18 06:30 CST    1.46 -99.99 -999 -999 -999 -99.9 -99.9 -999.9 -9.9 -9.999 -99.9 -99.99 -9.99
2019/11/18 06:36 CST    1.45 -99.99 -999 -999 -999 -99.9 -99.9 -999.9 -9.9 -9.999 -99.9 -99.99 -9.99
2019/11/18 06:42 CST    1.44 -99.99 -999 -999 -999 -99.9 -99.9 -999.9 -9.9 -9.999 -99.9 -99.99 -9.99
2019/11/18 06:48 CST    1.44 -99.99 -999 -999 -999 -99.9 -99.9 -999.9 -9.9 -9.999 -99.9 -99.99 -9.99
2019/11/18 06:54 CST    1.43 -99.99 -999 -999 -999 -99.9 -99.9 -999.9 -9.9 -9.999 -99.9 -99.99 -9.99
2019/11/18 07:00 CST    1.42 -99.99 -999 -999 -999 -99.9 -99.9 -999.9 -9.9 -9.999 -99.9 -99.99 -9.99
2019/11/18 07:06 CST    1.41 -99.99 -999 -999 -999 -99.9 -99.9 -999.9 -9.9 -9.999 -99.9 -99.99 -9.99
2019/11/18 07:12 CST    1.40 -99.99 -999 -999 -999 -99.9 -99.9 -999.9 -9.9 -9.999 -99.9 -99.99 -9.99
2019/11/18 07:18 CST    1.39 -99.99 -999 -999 -999 -99.9 -99.9 -999.9 -9.9 -9.999 -99.9 -99.99 -9.99